This is the latest recevied weather packets stored in our database for station/object AC2JK-WX. If no packets are shown the sender has not sent any weather packets the latest 10 day(s).
| Time | Temp. | Humidity | Pressure | Rain* | Wind** | Luminosity | Snow |
|---|---|---|---|---|---|---|---|
| 1787420230 | 27.22° C | 51% | 1013 hPa | 0 mm | - | - | - |
| 1787419930 | 26.67° C | 55% | 1013 hPa | 0 mm | - | - | - |
| 1787419630 | 26.67° C | 53% | 1013 hPa | 0 mm | - | - | - |
| 1787419329 | 26.67° C | 53% | 1013 hPa | 0 mm | - | - | - |
| 1787419030 | 27.22° C | 54% | 1014 hPa | 0 mm | - | - | - |
| 1787418730 | 27.22° C | 53% | 1013 hPa | 0 mm | - | - | - |
| 1787418429 | 27.22° C | 54% | 1013 hPa | 0 mm | - | - | - |
| 1787418129 | 26.67° C | 58% | 1013 hPa | 0 mm | - | - | - |
| 1787417829 | 26.67° C | 56% | 1014 hPa | 0 mm | - | - | - |
| 1787417529 | 26.11° C | 57% | 1014 hPa | 0 mm | - | - | - |
| 1787417229 | 26.11° C | 57% | 1014 hPa | 0 mm | - | - | - |
| 1787416930 | 26.11° C | 60% | 1014 hPa | 0 mm | - | - | - |
| 1787416630 | 25.56° C | 63% | 1014 hPa | 0 mm | - | - | - |
| 1787416331 | 25° C | 66% | 1014 hPa | 0 mm | - | - | - |
| 1787416030 | 24.44° C | 66% | 1014 hPa | 0 mm | - | - | - |
| 1787415730 | 23.89° C | 70% | 1014 hPa | 0 mm | - | - | - |
| 1787415429 | 23.33° C | 71% | 1014 hPa | 0 mm | - | - | - |
| 1787415130 | 23.33° C | 71% | 1014 hPa | 0 mm | - | - | - |
| 1787414830 | 23.33° C | 70% | 1014 hPa | 0 mm | - | - | - |
| 1787414529 | 23.33° C | 70% | 1014 hPa | 0 mm | - | - | - |
| 1787414230 | 23.89° C | 70% | 1014 hPa | 0 mm | - | - | - |
| 1787413929 | 23.33° C | 70% | 1014 hPa | 0 mm | - | - | - |
| 1787413630 | 23.33° C | 70% | 1014 hPa | 0 mm | - | - | - |
| 1787413330 | 23.33° C | 71% | 1014 hPa | 0 mm | - | - | - |
| 1787413029 | 23.33° C | 70% | 1014 hPa | 0 mm | - | - | - |
* Rain latest hour (hover to see other rain measurements)
** Current wind speed in m/s (hover to see current wind gust speed)